Time;durP1;ratioP1;P1;durP2;ratioP2;P2;SDS_P1;SDS_P2;PMS_P1;PMS_P2;Temp;Humidity;BMP_temperature;BMP_pressure;BME280_temperature;BME280_humidity;BME280_pressure;Samples;Min_cycle;Max_cycle;Signal;HPM_P1;HPM_P2
2022/06/19 00:00:08;;;;;;;15.57;3.80;;;24.70;91.30;;;;;;5053317;28;20017;-88
2022/06/19 00:02:35;;;;;;;18.83;3.67;;;24.70;91.30;;;;;;5035469;28;20028;-88
2022/06/19 00:05:01;;;;;;;15.93;3.53;;;24.70;91.30;;;;;;5035491;28;20032;-88
2022/06/19 00:07:26;;;;;;;13.30;3.40;;;24.70;91.30;;;;;;5035472;28;20033;-88
2022/06/19 00:09:53;;;;;;;17.17;3.78;;;24.70;91.30;;;;;;5053369;28;20029;-88
2022/06/19 00:12:19;;;;;;;12.63;3.90;;;24.70;91.30;;;;;;5035437;28;20112;-88
2022/06/19 00:14:45;;;;;;;16.83;3.58;;;24.70;91.30;;;;;;5053348;28;20056;-88
2022/06/19 00:17:13;;;;;;;19.65;3.80;;;24.70;91.30;;;;;;5035390;28;20032;-88
2022/06/19 00:19:39;;;;;;;15.90;3.42;;;24.60;91.30;;;;;;5053173;28;20021;-88
2022/06/19 00:22:05;;;;;;;21.63;4.10;;;24.60;91.30;;;;;;5035303;28;20017;-88
2022/06/19 00:24:31;;;;;;;14.07;3.30;;;24.60;91.30;;;;;;5035218;28;20370;-88
2022/06/19 00:26:57;;;;;;;17.65;3.40;;;24.60;91.30;;;;;;5035258;28;20036;-88
2022/06/19 00:29:23;;;;;;;23.42;4.20;;;24.60;91.30;;;;;;5035728;28;20036;-89
2022/06/19 00:31:49;;;;;;;10.77;3.03;;;24.60;91.40;;;;;;5035211;28;20021;-88
2022/06/19 00:34:15;;;;;;;9.35;3.35;;;24.60;91.40;;;;;;5035201;28;20068;-88
2022/06/19 00:36:42;;;;;;;14.10;3.50;;;24.50;91.40;;;;;;5053061;28;20049;-88
2022/06/19 00:39:08;;;;;;;17.63;3.20;;;24.60;91.40;;;;;;5052950;28;20455;-88
2022/06/19 00:41:39;;;;;;;19.00;3.33;;;24.50;91.40;;;;;;5037568;28;20076;-87
2022/06/19 00:44:08;;;;;;;14.23;3.22;;;24.50;91.40;;;;;;5039136;28;20027;-88
2022/06/19 00:46:48;;;;;;;16.40;3.50;;;24.60;91.80;;;;;;5038880;28;20500;-88
2022/06/19 00:49:23;;;;;;;21.13;3.92;;;24.50;91.40;;;;;;5039008;28;20029;-88
2022/06/19 00:51:58;;;;;;;15.75;3.90;;;24.50;91.50;;;;;;5039739;28;20025;-88
2022/06/19 00:54:24;;;;;;;16.50;4.00;;;24.50;91.40;;;;;;5038838;28;20063;-88
2022/06/19 00:56:50;;;;;;;15.57;3.30;;;24.50;91.40;;;;;;5057101;28;20476;-88
2022/06/19 00:59:16;;;;;;;10.60;3.40;;;24.50;91.50;;;;;;5038959;28;20017;-88
2022/06/19 01:01:43;;;;;;;18.25;3.08;;;24.50;91.50;;;;;;5039200;28;20021;-88
2022/06/19 01:04:19;;;;;;;19.05;3.53;;;24.50;91.50;;;;;;5039126;28;20021;-88
2022/06/19 01:06:45;;;;;;;16.50;3.35;;;24.50;91.50;;;;;;5038817;28;20459;-88
2022/06/19 01:09:10;;;;;;;24.00;3.95;;;24.40;91.60;;;;;;5056350;28;20048;-88
2022/06/19 01:11:38;;;;;;;15.82;3.30;;;24.50;91.60;;;;;;5056333;28;20029;-88
2022/06/19 01:14:10;;;;;;;12.45;3.47;;;24.40;91.60;;;;;;5038398;28;20072;-88
2022/06/19 01:16:38;;;;;;;12.23;3.97;;;24.40;91.60;;;;;;5038260;28;20033;-88
2022/06/19 01:19:09;;;;;;;15.02;3.33;;;24.40;91.60;;;;;;5038201;28;20017;-88
2022/06/19 01:22:01;;;;;;;15.48;3.20;;;24.40;91.60;;;;;;5038298;28;20396;-88
2022/06/19 01:24:33;;;;;;;12.68;3.30;;;24.30;91.60;;;;;;5001602;28;20029;-88
2022/06/19 01:27:01;;;;;;;16.50;3.78;;;24.40;91.60;;;;;;5038596;28;20033;-88
2022/06/19 01:29:32;;;;;;;18.10;4.32;;;24.30;91.60;;;;;;5038450;28;20032;-88
2022/06/19 01:32:03;;;;;;;11.25;3.05;;;24.40;91.70;;;;;;5038354;28;20154;-88
2022/06/19 01:34:38;;;;;;;12.43;3.45;;;24.30;91.70;;;;;;5038370;28;20090;-88
2022/06/19 01:37:13;;;;;;;14.10;3.30;;;24.40;91.70;;;;;;5038305;28;20445;-88
2022/06/19 01:39:46;;;;;;;22.58;4.10;;;24.30;91.70;;;;;;5035798;28;20021;-88
2022/06/19 01:42:13;;;;;;;13.10;3.15;;;24.30;91.80;;;;;;5018714;28;20481;-88
2022/06/19 01:44:40;;;;;;;15.93;3.53;;;24.30;91.80;;;;;;5017980;28;20026;-88
2022/06/19 01:47:06;;;;;;;15.02;3.47;;;24.30;91.80;;;;;;5019162;28;20021;-88
2022/06/19 01:49:34;;;;;;;21.40;3.35;;;24.30;91.80;;;;;;5018292;28;20029;-88
2022/06/19 01:52:03;;;;;;;17.00;3.30;;;24.20;91.80;;;;;;5017813;28;20511;-88
2022/06/19 01:54:35;;;;;;;14.13;3.08;;;24.20;91.80;;;;;;5017877;28;20036;-87
2022/06/19 01:57:03;;;;;;;18.98;3.78;;;24.20;91.80;;;;;;5018062;28;20385;-88
2022/06/19 01:59:31;;;;;;;21.08;3.97;;;24.20;91.80;;;;;;5018179;28;20109;-88
2022/06/19 02:01:59;;;;;;;16.45;3.53;;;24.20;91.80;;;;;;5035860;28;20028;-88
2022/06/19 02:04:25;;;;;;;14.65;3.58;;;24.20;91.80;;;;;;5035721;28;20057;-88
2022/06/19 02:06:56;;;;;;;14.88;3.50;;;24.20;91.80;;;;;;5017948;28;20029;-88
2022/06/19 02:09:23;;;;;;;15.93;3.75;;;24.20;91.90;;;;;;5017776;28;20053;-88
2022/06/19 02:11:49;;;;;;;15.48;2.70;;;24.20;91.90;;;;;;5017624;28;20032;-88
2022/06/19 02:14:16;;;;;;;11.15;3.22;;;24.20;91.90;;;;;;5017952;28;20030;-88
2022/06/19 02:16:44;;;;;;;16.45;2.97;;;24.20;91.90;;;;;;5017411;28;20087;-88
2022/06/19 02:19:11;;;;;;;14.98;3.65;;;24.20;91.90;;;;;;5017533;28;20025;-88
2022/06/19 02:21:43;;;;;;;11.93;3.20;;;24.20;91.90;;;;;;5017269;28;20124;-88
2022/06/19 02:24:14;;;;;;;21.95;3.55;;;24.20;91.90;;;;;;5017285;28;20501;-88
2022/06/19 02:26:41;;;;;;;14.98;3.38;;;24.20;91.90;;;;;;5017320;28;20366;-88
2022/06/19 02:29:09;;;;;;;15.35;3.70;;;24.10;91.90;;;;;;5017507;28;20149;-88
2022/06/19 02:31:37;;;;;;;15.93;3.42;;;24.10;91.90;;;;;;5017082;28;20029;-88
2022/06/19 02:34:12;;;;;;;15.52;3.13;;;24.10;91.90;;;;;;5017056;28;20025;-88
2022/06/19 02:36:44;;;;;;;20.40;3.40;;;24.10;92.00;;;;;;5016988;28;20033;-88
2022/06/19 02:39:27;;;;;;;18.10;3.97;;;24.00;91.90;;;;;;5035247;28;20022;-88
2022/06/19 02:42:22;;;;;;;17.27;3.20;;;24.00;91.90;;;;;;5033438;28;20041;-88
2022/06/19 02:44:52;;;;;;;14.13;4.13;;;24.00;92.00;;;;;;5033420;28;20092;-88
2022/06/19 02:47:18;;;;;;;19.50;3.10;;;24.10;92.00;;;;;;5034146;28;20112;-88
2022/06/19 02:49:43;;;;;;;15.43;3.42;;;24.10;92.00;;;;;;5033363;28;20543;-88
2022/06/19 02:52:12;;;;;;;12.02;3.38;;;24.00;92.00;;;;;;5034683;28;20036;-88
2022/06/19 02:54:38;;;;;;;17.95;3.47;;;24.00;92.00;;;;;;5033171;28;20075;-88
2022/06/19 02:57:06;;;;;;;12.48;2.83;;;24.00;92.00;;;;;;5033054;28;20045;-88
2022/06/19 02:59:32;;;;;;;14.95;3.50;;;24.00;92.00;;;;;;5033047;28;20030;-88
2022/06/19 03:01:57;;;;;;;13.73;3.47;;;24.00;92.10;;;;;;5033038;28;20412;-88
2022/06/19 03:04:33;;;;;;;14.40;3.53;;;24.00;92.00;;;;;;5032363;28;20124;-88
2022/06/19 03:06:59;;;;;;;17.83;3.78;;;24.00;92.10;;;;;;5033133;28;20026;-88
2022/06/19 03:09:24;;;;;;;15.60;3.45;;;23.90;92.00;;;;;;5033044;28;20032;-88
2022/06/19 03:11:50;;;;;;;11.68;3.17;;;23.90;92.00;;;;;;5033073;28;20041;-88
2022/06/19 03:14:16;;;;;;;17.38;3.33;;;23.90;92.00;;;;;;5033442;28;20025;-88
2022/06/19 03:16:42;;;;;;;15.90;3.33;;;23.90;92.10;;;;;;5032899;28;20035;-88
2022/06/19 03:19:08;;;;;;;15.75;3.25;;;23.90;92.10;;;;;;5034029;28;20104;-88
2022/06/19 03:21:34;;;;;;;14.40;3.00;;;23.90;92.10;;;;;;5032581;28;20079;-88
2022/06/19 03:24:00;;;;;;;13.15;3.10;;;23.90;92.10;;;;;;5033858;28;20021;-88
2022/06/19 03:26:28;;;;;;;16.48;3.65;;;23.90;92.10;;;;;;5032577;28;20083;-88
2022/06/19 03:28:54;;;;;;;17.10;3.80;;;23.90;92.10;;;;;;5032512;28;20542;-88
2022/06/19 03:31:23;;;;;;;16.40;3.88;;;23.90;92.10;;;;;;5032449;28;20029;-88
2022/06/19 03:33:49;;;;;;;14.27;3.47;;;23.90;92.10;;;;;;5033739;28;20140;-88
2022/06/19 03:36:15;;;;;;;15.98;3.63;;;23.80;92.10;;;;;;5032296;28;20026;-88
2022/06/19 03:38:41;;;;;;;12.82;3.08;;;23.80;92.10;;;;;;5033877;28;20028;-88
2022/06/19 03:41:07;;;;;;;13.15;3.20;;;23.80;92.10;;;;;;5035478;28;20060;-88
2022/06/19 03:43:33;;;;;;;13.68;3.05;;;23.80;92.10;;;;;;5035583;28;20025;-88
2022/06/19 03:46:07;;;;;;;19.98;4.05;;;23.90;92.10;;;;;;5053706;28;20025;-88
2022/06/19 03:48:33;;;;;;;25.05;3.78;;;23.90;92.20;;;;;;5035626;28;20032;-88
2022/06/19 03:50:59;;;;;;;10.63;3.08;;;23.90;92.20;;;;;;5035528;28;20029;-88
2022/06/19 03:53:25;;;;;;;14.65;3.28;;;23.80;92.20;;;;;;5035516;28;20503;-88
2022/06/19 03:55:50;;;;;;;14.90;3.20;;;23.90;92.20;;;;;;5035400;28;20106;-88
2022/06/19 03:58:16;;;;;;;11.00;2.88;;;23.90;92.20;;;;;;5035396;28;20404;-88
2022/06/19 04:00:42;;;;;;;17.35;3.75;;;23.80;92.20;;;;;;5035308;28;20025;-88
2022/06/19 04:03:08;;;;;;;16.77;3.60;;;23.80;92.30;;;;;;5053249;28;20075;-88
2022/06/19 04:05:33;;;;;;;12.52;3.25;;;23.80;92.20;;;;;;5053146;28;20104;-88
2022/06/19 04:08:00;;;;;;;13.05;3.10;;;23.80;92.30;;;;;;5035523;28;20028;-88
2022/06/19 04:10:25;;;;;;;14.18;3.22;;;23.80;92.30;;;;;;5035177;28;20059;-88
2022/06/19 04:12:51;;;;;;;15.80;3.58;;;23.80;92.30;;;;;;5035219;28;20060;-88
2022/06/19 04:15:17;;;;;;;11.52;3.20;;;23.80;92.30;;;;;;5053024;28;20032;-88
2022/06/19 04:17:43;;;;;;;16.83;3.17;;;23.80;92.30;;;;;;5053500;28;20108;-88
2022/06/19 04:20:10;;;;;;;14.32;3.03;;;23.80;92.30;;;;;;5053298;28;20104;-88
2022/06/19 04:22:37;;;;;;;13.85;3.05;;;23.80;92.70;;;;;;5035485;28;20392;-88
2022/06/19 04:25:04;;;;;;;13.90;3.40;;;23.80;92.30;;;;;;5053233;28;20028;-88
2022/06/19 04:27:32;;;;;;;14.65;2.95;;;23.80;92.40;;;;;;5053436;28;20028;-88
2022/06/19 04:29:57;;;;;;;10.23;3.15;;;23.80;92.40;;;;;;5035471;28;20071;-88
2022/06/19 04:32:23;;;;;;;14.77;3.30;;;23.80;92.40;;;;;;5035118;28;20068;-88
2022/06/19 04:34:49;;;;;;;17.15;3.78;;;23.80;92.40;;;;;;5035358;28;20388;-88
2022/06/19 04:37:14;;;;;;;11.80;3.58;;;23.80;92.50;;;;;;5035308;28;20434;-88
2022/06/19 04:39:40;;;;;;;14.73;2.90;;;23.70;92.50;;;;;;5050752;28;20448;-88
2022/06/19 04:42:07;;;;;;;11.93;3.00;;;23.80;92.50;;;;;;5015454;28;20025;-88
2022/06/19 04:44:33;;;;;;;10.88;2.88;;;23.80;92.60;;;;;;5015287;28;20026;-88
2022/06/19 04:46:59;;;;;;;15.13;3.13;;;23.80;92.50;;;;;;5015066;28;20029;-87
2022/06/19 04:49:24;;;;;;;15.77;4.47;;;23.80;92.60;;;;;;5015178;28;20129;-88
2022/06/19 04:51:50;;;;;;;16.48;3.28;;;23.80;92.50;;;;;;5015330;28;20140;-88
2022/06/19 04:54:16;;;;;;;9.05;2.78;;;23.80;92.90;;;;;;5015153;28;20025;-88
2022/06/19 04:56:42;;;;;;;10.52;2.80;;;23.80;92.60;;;;;;5014973;28;20060;-88
2022/06/19 04:59:09;;;;;;;16.10;2.95;;;23.70;92.60;;;;;;5014896;28;20421;-88
2022/06/19 05:01:36;;;;;;;13.40;3.10;;;23.70;92.60;;;;;;5015012;28;20072;-88
2022/06/19 05:04:06;;;;;;;18.00;3.28;;;23.70;92.60;;;;;;5014931;28;20429;-88
2022/06/19 05:06:32;;;;;;;21.17;3.10;;;23.70;92.70;;;;;;5014943;28;20481;-88
2022/06/19 05:08:58;;;;;;;12.82;3.20;;;23.80;92.70;;;;;;5014891;28;20032;-88
2022/06/19 05:11:26;;;;;;;18.05;3.70;;;23.70;92.80;;;;;;5014960;28;20100;-89
2022/06/19 05:13:52;;;;;;;12.60;3.00;;;23.80;92.80;;;;;;5032564;28;20503;-88
2022/06/19 05:16:21;;;;;;;14.25;3.20;;;23.80;92.70;;;;;;5014819;28;20022;-88
2022/06/19 05:18:48;;;;;;;13.82;3.17;;;23.80;92.80;;;;;;5014836;28;20124;-88
2022/06/19 05:21:15;;;;;;;9.60;2.80;;;23.80;92.80;;;;;;5032586;28;20025;-88
2022/06/19 05:23:44;;;;;;;12.73;3.03;;;23.80;92.80;;;;;;5014796;28;20071;-88
2022/06/19 05:26:13;;;;;;;16.33;3.22;;;23.80;92.70;;;;;;5014852;28;20029;-88
2022/06/19 05:28:39;;;;;;;13.23;2.88;;;23.80;92.70;;;;;;5019180;28;20548;-88
2022/06/19 05:31:04;;;;;;;12.60;2.90;;;23.80;92.70;;;;;;5018690;28;20057;-88
2022/06/19 05:33:32;;;;;;;11.65;3.13;;;23.80;92.80;;;;;;5018250;28;20021;-88
2022/06/19 05:35:58;;;;;;;10.57;2.85;;;23.80;92.90;;;;;;5035809;28;20381;-88
2022/06/19 05:38:24;;;;;;;8.82;3.00;;;23.80;92.90;;;;;;5036004;28;20021;-88
2022/06/19 05:40:55;;;;;;;14.27;3.20;;;23.80;92.90;;;;;;5029938;28;20552;-88
2022/06/19 05:43:22;;;;;;;14.30;2.88;;;23.80;92.80;;;;;;5038767;28;20025;-88
2022/06/19 05:45:53;;;;;;;14.10;3.22;;;23.80;92.80;;;;;;5037842;28;20044;-88
2022/06/19 05:48:22;;;;;;;11.23;2.90;;;23.80;92.70;;;;;;5055580;28;20025;-88
2022/06/19 05:51:06;;;;;;;10.30;2.90;;;23.80;92.70;;;;;;5037650;28;20095;-88
2022/06/19 05:53:35;;;;;;;7.72;2.95;;;23.90;92.70;;;;;;5038543;28;20341;-88
2022/06/19 05:56:01;;;;;;;10.35;2.72;;;23.90;92.70;;;;;;5037468;28;20025;-88
2022/06/19 05:58:27;;;;;;;9.07;2.95;;;23.90;92.70;;;;;;5037491;28;20025;-88
2022/06/19 06:00:52;;;;;;;14.68;3.05;;;23.90;92.80;;;;;;5037353;28;20075;-88
2022/06/19 06:03:20;;;;;;;16.88;2.60;;;23.90;92.70;;;;;;5037378;28;20021;-88
2022/06/19 06:05:47;;;;;;;11.75;2.95;;;23.90;93.00;;;;;;5037429;28;20071;-87
2022/06/19 06:08:13;;;;;;;8.65;2.63;;;23.90;92.80;;;;;;5037258;28;20171;-88
2022/06/19 06:10:39;;;;;;;12.20;2.40;;;23.90;92.60;;;;;;5037344;28;20025;-88
2022/06/19 06:13:06;;;;;;;10.57;2.65;;;24.00;92.60;;;;;;5037257;28;20155;-88
2022/06/19 06:15:32;;;;;;;13.05;3.38;;;23.90;92.60;;;;;;5037169;28;20602;-88
2022/06/19 06:18:01;;;;;;;12.00;3.20;;;24.00;92.80;;;;;;5037090;28;20115;-87
2022/06/19 06:20:28;;;;;;;8.50;2.67;;;24.00;92.50;;;;;;5037119;28;20048;-87
2022/06/19 06:22:54;;;;;;;8.77;2.50;;;24.00;92.60;;;;;;5037111;28;20021;-87
2022/06/19 06:25:21;;;;;;;8.85;2.72;;;24.00;92.40;;;;;;5037040;28;20085;-88
2022/06/19 06:27:47;;;;;;;16.10;3.10;;;24.00;92.40;;;;;;5037296;28;20040;-87
2022/06/19 06:30:13;;;;;;;11.27;2.95;;;24.10;92.40;;;;;;5036873;28;20106;-88
2022/06/19 06:32:39;;;;;;;11.90;2.35;;;24.10;92.40;;;;;;5036772;28;20025;-88
2022/06/19 06:35:05;;;;;;;11.57;2.95;;;24.10;92.30;;;;;;5036814;28;20032;-88
2022/06/19 06:37:31;;;;;;;14.40;2.67;;;24.10;92.30;;;;;;5036181;28;20121;-88
2022/06/19 06:39:57;;;;;;;9.32;2.90;;;24.10;92.30;;;;;;5036009;28;20072;-87
2022/06/19 06:42:22;;;;;;;11.73;2.40;;;24.10;92.30;;;;;;5036703;28;20021;-88
2022/06/19 06:44:48;;;;;;;7.45;2.33;;;24.20;92.40;;;;;;5036598;28;20025;-88
2022/06/19 06:47:14;;;;;;;10.43;2.53;;;24.10;92.30;;;;;;5036440;28;20114;-87
2022/06/19 06:49:39;;;;;;;10.43;2.47;;;24.20;92.40;;;;;;5036550;28;20025;-87
2022/06/19 06:52:08;;;;;;;10.75;2.88;;;24.20;92.40;;;;;;5036523;28;20043;-87
2022/06/19 06:54:38;;;;;;;9.07;2.40;;;24.20;92.40;;;;;;5036387;28;20120;-87
2022/06/19 06:57:08;;;;;;;10.80;3.10;;;24.20;92.30;;;;;;5036278;28;20074;-88
2022/06/19 06:59:34;;;;;;;13.70;3.03;;;24.20;92.40;;;;;;5054123;28;20025;-88
2022/06/19 07:02:00;;;;;;;8.95;2.60;;;24.20;92.30;;;;;;5054271;28;20100;-88
2022/06/19 07:04:26;;;;;;;10.77;2.72;;;24.20;92.40;;;;;;5036526;28;20083;-87
2022/06/19 07:06:52;;;;;;;14.30;2.88;;;24.20;92.40;;;;;;5036295;28;20170;-87
2022/06/19 07:09:18;;;;;;;15.85;4.05;;;24.20;92.40;;;;;;5037484;28;20063;-87
2022/06/19 07:11:46;;;;;;;27.30;4.57;;;24.50;94.90;;;;;;5037474;28;20344;-88
2022/06/19 07:14:12;;;;;;;24.77;4.70;;;25.20;95.60;;;;;;5055290;28;20045;-88
2022/06/19 07:16:40;;;;;;;25.23;4.32;;;25.60;95.10;;;;;;5037042;28;20033;-87
2022/06/19 07:19:06;;;;;;;16.95;3.80;;;25.90;94.70;;;;;;5035971;28;20021;-87
2022/06/19 07:21:33;;;;;;;21.25;4.80;;;25.90;94.40;;;;;;5035986;28;20438;-86
2022/06/19 07:23:58;;;;;;;19.98;4.30;;;25.70;94.30;;;;;;5035822;28;20063;-86
2022/06/19 07:26:26;;;;;;;22.40;4.63;;;25.50;94.40;;;;;;5035828;28;20056;-87
2022/06/19 07:28:52;;;;;;;20.80;4.57;;;25.30;94.50;;;;;;5053670;28;20021;-87
2022/06/19 07:31:17;;;;;;;19.50;4.78;;;25.20;94.40;;;;;;5035783;28;20120;-87
2022/06/19 07:33:43;;;;;;;16.33;4.15;;;25.00;94.60;;;;;;5035713;28;20460;-87
2022/06/19 07:36:14;;;;;;;18.65;4.72;;;24.90;94.50;;;;;;5035659;28;20025;-86
2022/06/19 07:38:40;;;;;;;19.50;4.43;;;24.90;94.70;;;;;;5035675;28;20043;-87
2022/06/19 07:41:06;;;;;;;20.00;4.47;;;24.80;94.70;;;;;;5035348;28;20124;-87
2022/06/19 07:43:32;;;;;;;14.93;4.53;;;24.80;94.70;;;;;;5035584;28;20074;-87
2022/06/19 07:45:58;;;;;;;21.25;4.70;;;24.70;94.70;;;;;;5053416;28;20032;-87
2022/06/19 07:51:07;;;;;;;14.95;3.85;;;24.70;94.60;;;;;;5053310;28;20032;-87
2022/06/19 07:53:33;;;;;;;15.50;4.45;;;24.70;94.50;;;;;;5035459;28;20468;-87
2022/06/19 07:55:59;;;;;;;15.55;4.38;;;24.70;94.60;;;;;;5035227;28;20032;-87
2022/06/19 07:58:25;;;;;;;13.18;4.07;;;24.70;94.60;;;;;;5035345;28;20029;-86
2022/06/19 08:00:50;;;;;;;17.58;4.57;;;24.70;94.40;;;;;;5053124;28;20021;-86
2022/06/19 08:03:16;;;;;;;13.90;4.10;;;24.70;94.70;;;;;;5035241;28;20028;-87
2022/06/19 08:05:43;;;;;;;15.00;4.35;;;24.70;94.40;;;;;;5035283;28;20032;-87
2022/06/19 08:08:18;;;;;;;16.05;4.53;;;24.80;94.40;;;;;;5035249;28;20021;-86
2022/06/19 08:10:47;;;;;;;20.63;4.55;;;24.80;94.20;;;;;;5035257;28;20056;-87
2022/06/19 08:13:13;;;;;;;19.83;4.53;;;24.80;94.40;;;;;;5035274;28;20041;-87
2022/06/19 08:15:38;;;;;;;18.30;4.90;;;24.80;94.20;;;;;;5053009;28;20029;-87
2022/06/19 08:18:04;;;;;;;12.32;4.30;;;24.80;94.10;;;;;;5035070;28;20075;-87
2022/06/19 08:20:30;;;;;;;16.42;4.68;;;24.80;94.00;;;;;;5034905;28;20025;-86
2022/06/19 08:22:56;;;;;;;14.65;4.60;;;24.80;94.00;;;;;;5035056;28;20032;-86
2022/06/19 08:25:23;;;;;;;13.30;4.70;;;24.80;93.90;;;;;;5034979;28;20108;-87
2022/06/19 08:27:50;;;;;;;12.07;4.55;;;24.80;93.90;;;;;;5035694;28;20115;-87
2022/06/19 08:30:19;;;;;;;12.77;4.65;;;24.80;93.70;;;;;;5034993;28;20392;-87
2022/06/19 08:32:44;;;;;;;16.63;5.38;;;24.90;93.70;;;;;;5035189;28;20029;-87
2022/06/19 08:35:10;;;;;;;15.30;4.95;;;24.90;93.60;;;;;;5052805;28;20542;-87
2022/06/19 08:37:38;;;;;;;12.65;4.80;;;24.90;93.50;;;;;;5034827;28;20028;-87
2022/06/19 08:40:43;;;;;;;15.15;5.28;;;24.90;93.40;;;;;;5034716;28;20481;-86
2022/06/19 08:43:30;;;;;;;16.73;6.07;;;24.90;93.30;;;;;;5031339;28;20032;-86
2022/06/19 08:46:06;;;;;;;12.77;5.32;;;24.90;93.20;;;;;;5034889;28;20033;-87
2022/06/19 08:48:31;;;;;;;15.68;5.30;;;24.90;93.20;;;;;;5034983;28;20025;-86
2022/06/19 08:51:39;;;;;;;13.15;5.20;;;24.90;93.10;;;;;;5034986;28;20029;-85
2022/06/19 08:54:10;;;;;;;12.43;5.22;;;25.00;93.00;;;;;;5035044;28;20021;-89
2022/06/19 08:56:48;;;;;;;12.38;5.10;;;25.00;92.80;;;;;;5034911;28;20037;-86
2022/06/19 08:59:38;;;;;;;13.73;5.65;;;25.00;92.70;;;;;;5034796;28;20025;-86
2022/06/19 09:02:25;;;;;;;15.40;5.65;;;25.00;92.50;;;;;;5054605;28;20048;-85
2022/06/19 09:08:18;;;;;;;16.73;5.00;;;25.10;92.40;;;;;;5056844;28;20074;-84
2022/06/19 09:11:03;;;;;;;13.98;5.47;;;25.10;92.40;;;;;;5038518;28;20025;-86
2022/06/19 09:13:58;;;;;;;14.35;4.82;;;25.10;92.10;;;;;;5038375;28;20028;-86
2022/06/19 09:16:50;;;;;;;;;;;25.10;92.10;;;;;;5056812;28;20025;-86
2022/06/19 09:19:45;;;;;;;13.00;5.47;;;25.10;91.90;;;;;;5038340;28;19911;-87
2022/06/19 09:22:23;;;;;;;12.85;5.05;;;25.10;91.80;;;;;;4968643;28;20030;-85
2022/06/19 09:25:05;;;;;;;12.10;4.53;;;25.20;91.80;;;;;;5038174;28;20020;-85
2022/06/19 09:27:41;;;;;;;13.55;4.68;;;25.20;91.50;;;;;;5038188;28;20021;-87
2022/06/19 09:30:39;;;;;;;12.20;4.88;;;25.20;91.50;;;;;;5056086;28;20021;-88
2022/06/19 09:33:21;;;;;;;11.00;5.00;;;25.20;91.40;;;;;;5037930;28;20029;-86
2022/06/19 09:35:56;;;;;;;14.93;5.43;;;25.20;91.20;;;;;;5037968;28;20056;-85
2022/06/19 09:38:42;;;;;;;11.75;4.93;;;25.20;91.10;;;;;;5055973;28;20025;-85
2022/06/19 09:41:17;;;;;;;14.57;4.85;;;25.30;91.00;;;;;;5041258;28;20452;-86
2022/06/19 09:44:10;;;;;;;14.13;5.18;;;25.30;90.70;;;;;;5018123;28;20497;-86
2022/06/19 09:46:43;;;;;;;14.65;5.00;;;25.30;90.80;;;;;;5018020;28;20029;-87
2022/06/19 09:49:29;;;;;;;15.90;4.88;;;25.30;90.80;;;;;;5035822;28;20392;-88
2022/06/19 09:52:22;;;;;;;12.93;4.57;;;25.30;90.60;;;;;;5018528;28;20088;-88
2022/06/19 09:55:03;;;;;;;13.70;4.82;;;25.40;90.60;;;;;;5030809;28;20496;-87
2022/06/19 09:57:38;;;;;;;12.85;4.90;;;25.40;90.60;;;;;;5017816;28;20504;-87
2022/06/19 10:00:13;;;;;;;11.68;4.88;;;25.40;90.20;;;;;;5035532;28;20017;-86
2022/06/19 10:03:01;;;;;;;9.65;4.18;;;25.50;90.40;;;;;;5017759;28;20029;-87
2022/06/19 10:05:38;;;;;;;8.57;4.82;;;25.50;90.30;;;;;;5017647;28;20048;-85
2022/06/19 10:08:17;;;;;;;15.70;5.28;;;25.50;90.10;;;;;;5017630;28;20022;-88
2022/06/19 10:11:16;;;;;;;13.10;4.40;;;25.50;90.10;;;;;;5033903;28;20452;-88
2022/06/19 10:13:48;;;;;;;10.93;4.43;;;25.50;90.20;;;;;;5016569;28;20037;-87
2022/06/19 10:16:29;;;;;;;10.13;4.43;;;25.50;90.30;;;;;;5017332;28;20083;-86
2022/06/19 10:18:56;;;;;;;17.15;5.10;;;25.60;90.20;;;;;;5017455;28;20041;-86
2022/06/19 10:24:21;;;;;;;;;;;25.60;90.10;;;;;;5036041;28;20033;-88
2022/06/19 10:26:55;;;;;;;11.85;4.60;;;25.70;90.00;;;;;;5034931;28;19905;-87
2022/06/19 10:29:34;;;;;;;13.57;5.03;;;25.60;89.40;;;;;;5018182;28;20036;-86
2022/06/19 10:32:27;;;;;;;12.75;4.68;;;25.70;89.20;;;;;;5017106;28;20492;-87
2022/06/19 10:35:09;;;;;;;12.35;4.18;;;25.70;89.40;;;;;;5017021;28;20064;-87
2022/06/19 10:37:45;;;;;;;13.85;4.75;;;25.70;88.90;;;;;;5034957;28;20329;-86
2022/06/19 10:40:26;;;;;;;11.15;4.72;;;25.70;88.30;;;;;;5034723;28;20045;-86
2022/06/19 10:42:58;;;;;;;12.13;4.57;;;25.80;88.30;;;;;;5016950;28;20029;-87
2022/06/19 10:45:32;;;;;;;13.63;4.53;;;25.70;88.50;;;;;;5034802;28;20021;-85
2022/06/19 10:48:31;;;;;;;12.63;4.43;;;25.80;88.40;;;;;;5016833;28;20022;-86
2022/06/19 10:51:05;;;;;;;12.43;4.53;;;25.80;88.10;;;;;;4963923;28;20034;-88
2022/06/19 10:53:39;;;;;;;10.77;4.93;;;25.80;88.20;;;;;;5016790;28;20025;-86
2022/06/19 10:56:23;;;;;;;12.10;4.57;;;25.80;87.80;;;;;;5016558;28;20033;-87
2022/06/19 10:58:50;;;;;;;11.45;4.30;;;25.80;87.80;;;;;;5016600;28;20021;-87
2022/06/19 11:04:10;;;;;;;15.57;4.78;;;25.90;87.40;;;;;;5034889;28;20028;-87
2022/06/19 11:06:57;;;;;;;14.07;4.60;;;25.90;87.70;;;;;;5016542;28;20026;-86
2022/06/19 11:09:34;;;;;;;14.07;4.55;;;25.90;87.50;;;;;;5016439;28;20053;-87
2022/06/19 11:12:33;;;;;;;11.65;4.28;;;25.90;87.20;;;;;;5016963;28;20388;-88
2022/06/19 11:15:02;;;;;;;12.07;4.57;;;25.90;87.70;;;;;;5016066;28;20480;-86
2022/06/19 11:17:34;;;;;;;9.90;4.20;;;25.90;87.30;;;;;;5016104;28;20022;-85
2022/06/19 11:20:21;;;;;;;10.38;3.95;;;26.00;87.40;;;;;;5016298;28;20025;-87
2022/06/19 11:22:49;;;;;;;13.90;4.68;;;26.00;86.70;;;;;;5016285;28;20018;-89
2022/06/19 11:25:21;;;;;;;12.63;4.38;;;26.00;86.90;;;;;;5015581;28;20113;-88
2022/06/19 11:28:05;;;;;;;10.00;3.78;;;26.00;86.90;;;;;;5034021;28;20029;-86
2022/06/19 11:30:51;;;;;;;14.50;4.40;;;26.00;87.10;;;;;;5016263;28;20171;-87
2022/06/19 11:33:33;;;;;;;12.50;4.10;;;26.00;86.90;;;;;;5016081;28;20564;-86
2022/06/19 11:36:02;;;;;;;15.85;4.78;;;26.10;86.70;;;;;;5033863;28;20026;-86
2022/06/19 11:38:49;;;;;;;10.05;4.13;;;26.10;86.70;;;;;;5015906;28;20580;-87
2022/06/19 11:41:21;;;;;;;11.13;4.20;;;26.10;86.30;;;;;;5030954;28;20041;-86
2022/06/19 11:44:02;;;;;;;11.73;4.57;;;26.10;85.60;;;;;;5035740;28;20040;-86
2022/06/19 11:46:28;;;;;;;7.60;3.83;;;26.10;86.30;;;;;;5020105;28;20086;-87
2022/06/19 11:48:54;;;;;;;9.68;4.00;;;26.20;86.80;;;;;;5035470;28;20477;-87
2022/06/19 11:51:28;;;;;;;17.00;4.50;;;26.20;86.60;;;;;;5053401;28;20029;-87
2022/06/19 11:53:58;;;;;;;9.73;4.13;;;26.20;86.30;;;;;;5036186;28;20029;-87
2022/06/19 11:56:36;;;;;;;15.50;4.32;;;26.20;86.30;;;;;;5053242;28;20032;-87
2022/06/19 11:59:05;;;;;;;12.32;4.43;;;26.20;86.20;;;;;;5053168;28;20056;-86
2022/06/19 12:01:40;;;;;;;11.25;4.00;;;26.20;86.00;;;;;;5035311;28;20499;-87
2022/06/19 12:04:34;;;;;;;15.15;4.47;;;26.20;85.70;;;;;;5035209;28;20025;-87
2022/06/19 12:07:16;;;;;;;9.50;4.35;;;26.30;85.80;;;;;;5035331;28;20029;-87
2022/06/19 12:09:45;;;;;;;16.00;4.15;;;26.30;85.60;;;;;;5035206;28;20499;-87
2022/06/19 12:12:11;;;;;;;11.48;4.18;;;26.30;85.40;;;;;;5035208;28;20505;-86
2022/06/19 12:14:46;;;;;;;13.00;4.32;;;26.30;85.90;;;;;;5052979;28;20025;-87
2022/06/19 12:17:17;;;;;;;11.93;4.18;;;26.30;85.60;;;;;;5035030;28;20070;-87
2022/06/19 12:19:49;;;;;;;12.38;4.13;;;26.30;85.70;;;;;;5035026;28;20111;-87
2022/06/19 12:22:17;;;;;;;10.90;3.80;;;26.40;85.90;;;;;;5035071;28;20559;-86
2022/06/19 12:24:50;;;;;;;12.85;4.32;;;26.40;86.10;;;;;;5035025;28;20072;-87
2022/06/19 12:27:19;;;;;;;11.50;4.20;;;26.40;85.00;;;;;;5035094;28;20476;-87
2022/06/19 12:29:50;;;;;;;11.52;4.60;;;26.40;86.00;;;;;;5035060;28;20025;-87
2022/06/19 12:32:26;;;;;;;14.90;4.50;;;26.40;85.30;;;;;;5035010;28;20033;-87
2022/06/19 12:34:57;;;;;;;11.02;4.30;;;26.40;85.50;;;;;;5034932;28;20029;-87
2022/06/19 12:37:27;;;;;;;10.50;3.97;;;26.50;85.20;;;;;;5056673;28;20036;-87
2022/06/19 12:39:54;;;;;;;10.98;3.88;;;26.50;84.60;;;;;;5039036;28;20052;-87
2022/06/19 12:42:48;;;;;;;8.65;3.70;;;26.60;84.30;;;;;;5056785;28;20063;-86
2022/06/19 12:45:20;;;;;;;11.90;4.47;;;26.60;85.00;;;;;;5038911;28;20017;-86
2022/06/19 12:47:57;;;;;;;7.63;3.78;;;26.60;84.00;;;;;;5038845;28;20029;-88
2022/06/19 12:50:37;;;;;;;8.45;4.13;;;26.70;84.90;;;;;;5038905;28;20089;-88
2022/06/19 12:53:31;;;;;;;8.80;3.45;;;26.70;84.50;;;;;;5038692;28;20032;-87
2022/06/19 12:56:21;;;;;;;13.60;4.13;;;26.80;84.00;;;;;;5038762;28;20032;-88
2022/06/19 12:59:15;;;;;;;14.10;3.80;;;26.90;83.80;;;;;;5056466;28;20870;-87
2022/06/19 13:02:14;;;;;;;10.27;4.07;;;27.00;83.50;;;;;;5038554;28;20025;-88
2022/06/19 13:04:53;;;;;;;9.85;3.97;;;27.10;83.40;;;;;;5037644;28;20422;-87
2022/06/19 13:07:26;;;;;;;13.63;3.80;;;27.10;82.80;;;;;;5038519;28;20025;-87
2022/06/19 13:10:00;;;;;;;11.32;4.10;;;27.20;82.50;;;;;;5038584;28;20024;-87